createdAt,value
2017-10-26T00:01:45.326Z,84.50
2017-10-26T00:04:12.226Z,84.10
2017-10-26T00:06:39.530Z,83.80
2017-10-26T00:09:06.437Z,83.80
2017-10-26T00:11:33.318Z,83.60
2017-10-26T00:14:00.286Z,84.10
2017-10-26T00:16:27.245Z,83.80
2017-10-26T00:18:54.126Z,83.40
2017-10-26T00:21:21.138Z,83.60
2017-10-26T00:23:48.083Z,83.60
2017-10-26T00:26:14.970Z,83.40
2017-10-26T00:28:41.873Z,83.60
2017-10-26T00:31:08.790Z,83.90
2017-10-26T00:33:36.069Z,83.90
2017-10-26T00:36:02.950Z,83.90
2017-10-26T00:38:29.863Z,83.80
2017-10-26T00:40:56.773Z,83.80
2017-10-26T00:43:23.653Z,84.10
2017-10-26T00:45:50.529Z,84.30
2017-10-26T00:48:17.837Z,84.20
2017-10-26T00:50:44.751Z,84.20
2017-10-26T00:53:11.638Z,84.20
2017-10-26T00:55:38.553Z,83.90
2017-10-26T00:58:05.433Z,84.00
2017-10-26T01:00:32.349Z,84.10
2017-10-26T01:02:59.229Z,84.10
2017-10-26T01:05:26.133Z,84.00
2017-10-26T01:07:53.250Z,83.80
2017-10-26T01:10:20.681Z,83.60
2017-10-26T01:12:47.617Z,83.60
2017-10-26T01:15:14.499Z,83.80
2017-10-26T01:17:41.798Z,83.50
2017-10-26T01:20:08.785Z,83.50
2017-10-26T01:22:36.062Z,83.20
2017-10-26T01:25:02.969Z,83.20
2017-10-26T01:27:29.879Z,83.40
2017-10-26T01:29:56.783Z,83.70
2017-10-26T01:32:24.082Z,84.10
2017-10-26T01:34:50.965Z,84.10
2017-10-26T01:37:17.874Z,84.30
2017-10-26T01:39:44.758Z,84.20
2017-10-26T01:42:11.663Z,83.90
2017-10-26T01:44:38.715Z,83.70
2017-10-26T01:47:05.622Z,83.80
2017-10-26T01:49:32.907Z,83.80
2017-10-26T01:51:59.817Z,83.80
2017-10-26T01:54:27.111Z,83.90
2017-10-26T01:56:53.993Z,83.90
2017-10-26T01:59:20.949Z,84.40
2017-10-26T02:01:47.855Z,84.60
2017-10-26T02:04:14.746Z,84.20
2017-10-26T02:06:42.410Z,83.70
2017-10-26T02:09:09.691Z,83.80
2017-10-26T02:11:36.574Z,83.80
2017-10-26T02:14:03.490Z,84.00
2017-10-26T02:16:30.378Z,84.40
2017-10-26T02:18:57.262Z,85.20
2017-10-26T02:21:24.598Z,85.70
2017-10-26T02:23:51.891Z,85.70
2017-10-26T02:26:19.255Z,85.80
2017-10-26T02:28:58.065Z,85.90
2017-10-26T02:31:36.902Z,85.50
2017-10-26T02:34:03.806Z,85.00
2017-10-26T02:36:31.110Z,84.60
2017-10-26T02:38:57.986Z,84.60
2017-10-26T02:41:24.898Z,84.20
2017-10-26T02:43:51.786Z,84.30
2017-10-26T02:46:18.697Z,84.70
2017-10-26T02:48:45.579Z,84.50
2017-10-26T02:51:12.526Z,83.90
2017-10-26T02:53:39.428Z,84.10
2017-10-26T02:56:06.327Z,84.30
2017-10-26T02:58:33.678Z,84.40
2017-10-26T03:01:00.565Z,84.40
2017-10-26T03:03:27.466Z,84.50
2017-10-26T03:05:54.369Z,84.30
2017-10-26T03:08:21.277Z,84.40
2017-10-26T03:10:48.554Z,84.80
2017-10-26T03:13:15.463Z,84.80
2017-10-26T03:15:42.351Z,84.40
2017-10-26T03:18:09.263Z,84.40
2017-10-26T03:20:36.586Z,84.00
2017-10-26T03:23:03.482Z,83.90
2017-10-26T03:25:30.376Z,84.30
2017-10-26T03:27:57.356Z,84.30
2017-10-26T03:30:24.694Z,83.80
2017-10-26T03:32:51.598Z,83.80
2017-10-26T03:35:18.582Z,83.60
2017-10-26T03:37:45.529Z,83.30
2017-10-26T03:40:12.414Z,83.40
2017-10-26T03:42:39.313Z,83.80
2017-10-26T03:45:06.271Z,84.10
2017-10-26T03:47:33.214Z,84.30
2017-10-26T03:50:00.106Z,84.20
2017-10-26T03:52:27.014Z,83.90
2017-10-26T03:54:53.894Z,83.80
2017-10-26T03:57:20.815Z,83.90
2017-10-26T03:59:48.153Z,84.60
2017-10-26T04:02:15.030Z,84.60
2017-10-26T04:04:41.945Z,84.40
2017-10-26T04:07:08.827Z,84.40
2017-10-26T04:09:35.835Z,84.30
2017-10-26T04:12:02.739Z,84.30
2017-10-26T04:14:29.728Z,84.50
2017-10-26T04:16:56.673Z,84.60
2017-10-26T04:19:23.554Z,84.40
2017-10-26T04:21:50.457Z,84.00
2017-10-26T04:24:17.338Z,84.00
2017-10-26T04:26:44.646Z,84.50
2017-10-26T04:29:11.538Z,84.50
2017-10-26T04:31:38.813Z,84.50
2017-10-26T04:34:05.886Z,84.50
2017-10-26T04:36:32.765Z,84.30
2017-10-26T04:38:59.682Z,84.40
2017-10-26T04:41:26.566Z,84.30
2017-10-26T04:43:53.916Z,84.00
2017-10-26T04:46:20.811Z,84.00
2017-10-26T04:48:47.698Z,83.80
2017-10-26T04:51:14.598Z,83.90
2017-10-26T04:53:41.521Z,84.10
2017-10-26T04:56:08.522Z,84.10
2017-10-26T04:58:35.402Z,84.50
2017-10-26T05:01:02.707Z,84.30
2017-10-26T05:03:29.581Z,84.30
2017-10-26T05:05:56.485Z,84.00
2017-10-26T05:08:23.461Z,84.20
2017-10-26T05:10:50.342Z,84.50
2017-10-26T05:13:17.650Z,84.20
2017-10-26T05:15:44.545Z,84.20
2017-10-26T05:18:11.822Z,83.80
2017-10-26T05:20:38.733Z,83.80
2017-10-26T05:23:06.051Z,84.50
2017-10-26T05:25:32.953Z,84.50
2017-10-26T05:27:59.861Z,85.20
2017-10-26T05:30:26.741Z,85.00
2017-10-26T05:32:53.641Z,85.00
2017-10-26T05:35:20.557Z,84.60
2017-10-26T05:37:47.442Z,84.60
2017-10-26T05:40:14.322Z,84.40
2017-10-26T05:42:41.226Z,84.20
2017-10-26T05:45:08.109Z,84.10
2017-10-26T05:47:35.009Z,84.30
2017-10-26T05:50:01.896Z,84.70
2017-10-26T05:52:29.197Z,85.10
2017-10-26T05:54:56.077Z,85.10
2017-10-26T05:57:23.381Z,85.00
2017-10-26T05:59:50.261Z,85.00
2017-10-26T06:02:17.142Z,84.80
2017-10-26T06:04:44.055Z,84.10
2017-10-26T06:07:10.937Z,83.70
2017-10-26T06:09:37.821Z,83.30
2017-10-26T06:12:04.725Z,83.50
2017-10-26T06:14:31.621Z,83.60
2017-10-26T06:16:58.577Z,83.60
2017-10-26T06:19:25.488Z,83.80
2017-10-26T06:21:52.378Z,84.30
2017-10-26T06:24:19.300Z,85.00
2017-10-26T06:26:46.272Z,85.50
2017-10-26T06:29:13.225Z,85.80
2017-10-26T06:31:40.530Z,85.90
2017-10-26T06:34:07.520Z,85.90
2017-10-26T06:36:34.454Z,86.00
2017-10-26T06:39:01.405Z,86.20
2017-10-26T06:41:28.297Z,86.10
2017-10-26T06:43:55.212Z,86.00
2017-10-26T06:46:22.150Z,85.80
2017-10-26T06:48:49.102Z,85.80
2017-10-26T06:51:16.148Z,85.80
2017-10-26T06:53:43.095Z,86.10
2017-10-26T06:56:10.010Z,86.10
2017-10-26T06:58:36.899Z,85.90
2017-10-26T07:01:04.238Z,85.10
2017-10-26T07:03:31.118Z,85.10
2017-10-26T07:05:58.030Z,85.10
2017-10-26T07:08:24.982Z,84.80
2017-10-26T07:10:51.923Z,84.80
2017-10-26T07:13:18.842Z,84.60
2017-10-26T07:15:45.729Z,84.10
2017-10-26T07:18:13.041Z,84.10
2017-10-26T07:20:40.165Z,84.10
2017-10-26T07:23:07.085Z,84.00
2017-10-26T07:25:34.013Z,83.80
2017-10-26T07:28:00.969Z,83.80
2017-10-26T07:30:28.281Z,83.80
2017-10-26T07:32:55.165Z,83.80
2017-10-26T07:35:22.487Z,83.30
2017-10-26T07:37:49.379Z,83.30
2017-10-26T07:40:16.668Z,82.90
2017-10-26T07:42:43.596Z,82.90
2017-10-26T07:45:10.482Z,83.50
2017-10-26T07:47:37.369Z,84.10
2017-10-26T07:50:04.688Z,84.10
2017-10-26T07:52:31.587Z,84.10
2017-10-26T07:54:58.493Z,84.20
2017-10-26T07:57:25.750Z,84.40
2017-10-26T07:59:52.667Z,84.50
2017-10-26T08:02:19.580Z,84.70
2017-10-26T08:04:46.507Z,84.50
2017-10-26T08:07:13.790Z,84.60
2017-10-26T08:09:40.684Z,84.60
2017-10-26T08:12:07.639Z,84.40
2017-10-26T08:14:34.825Z,85.10
2017-10-26T08:17:01.710Z,85.30
2017-10-26T08:19:28.595Z,84.90
2017-10-26T08:21:55.906Z,84.10
2017-10-26T08:24:22.811Z,84.10
2017-10-26T08:26:49.730Z,84.40
2017-10-26T08:29:17.042Z,85.20
2017-10-26T08:31:43.940Z,85.20
2017-10-26T08:34:11.245Z,85.20
2017-10-26T08:36:38.130Z,85.20
2017-10-26T08:39:05.449Z,84.20
2017-10-26T08:41:32.377Z,84.20
2017-10-26T08:43:59.317Z,83.80
2017-10-26T08:46:26.252Z,83.90
2017-10-26T08:48:53.138Z,83.80
2017-10-26T08:51:20.034Z,83.60
2017-10-26T08:53:46.955Z,83.40
2017-10-26T08:56:13.850Z,83.20
2017-10-26T08:58:40.766Z,82.90
2017-10-26T09:01:08.041Z,82.30
2017-10-26T09:03:34.968Z,82.30
2017-10-26T09:06:01.931Z,81.80
2017-10-26T09:08:28.851Z,81.50
2017-10-26T09:10:56.158Z,80.40
2017-10-26T09:13:23.042Z,80.40
2017-10-26T09:15:50.356Z,80.50
2017-10-26T09:18:17.254Z,80.50
2017-10-26T09:20:44.575Z,79.50
2017-10-26T09:23:11.457Z,79.50
2017-10-26T09:25:38.761Z,78.40
2017-10-26T09:28:05.670Z,78.40
2017-10-26T09:30:32.623Z,78.50
2017-10-26T09:32:59.543Z,78.50
2017-10-26T09:35:26.823Z,78.20
2017-10-26T09:37:53.751Z,78.20
2017-10-26T09:40:21.022Z,77.90
2017-10-26T09:42:47.911Z,77.90
2017-10-26T09:45:14.830Z,77.40
2017-10-26T09:47:41.712Z,78.50
2017-10-26T09:50:08.622Z,78.90
2017-10-26T09:52:35.514Z,79.80
2017-10-26T09:55:02.421Z,80.30
2017-10-26T09:57:29.329Z,80.10
2017-10-26T09:59:56.217Z,79.90
2017-10-26T10:02:23.141Z,80.10
2017-10-26T10:04:50.021Z,79.90
2017-10-26T10:07:16.910Z,79.70
2017-10-26T10:09:43.828Z,79.30
2017-10-26T10:12:10.774Z,79.10
2017-10-26T10:14:38.079Z,78.10
2017-10-26T10:17:04.994Z,78.10
2017-10-26T10:19:32.297Z,78.00
2017-10-26T10:21:59.177Z,78.00
2017-10-26T10:24:26.143Z,76.80
2017-10-26T10:26:53.043Z,76.40
2017-10-26T10:29:19.957Z,76.50
2017-10-26T10:31:46.858Z,76.70
2017-10-26T10:34:13.750Z,76.50
2017-10-26T10:36:40.672Z,76.30
2017-10-26T10:39:07.957Z,75.70
2017-10-26T10:41:34.888Z,75.70
2017-10-26T10:44:01.770Z,75.80
2017-10-26T10:46:28.667Z,74.80
2017-10-26T10:48:55.997Z,75.10
2017-10-26T10:51:22.873Z,75.10
2017-10-26T10:53:49.759Z,75.30
2017-10-26T10:56:16.657Z,75.60
2017-10-26T10:58:43.573Z,75.40
2017-10-26T11:01:10.564Z,75.10
2017-10-26T11:03:37.465Z,75.40
2017-10-26T11:06:04.346Z,75.40
2017-10-26T11:08:31.246Z,74.60
2017-10-26T11:10:58.131Z,75.30
2017-10-26T11:13:25.433Z,76.00
2017-10-26T11:15:52.345Z,75.90
2017-10-26T11:18:19.257Z,75.30
2017-10-26T11:20:46.529Z,74.50
2017-10-26T11:23:13.815Z,74.40
2017-10-26T11:25:40.769Z,74.40
2017-10-26T11:28:07.654Z,74.50
2017-10-26T11:30:34.944Z,72.90
2017-10-26T11:33:01.868Z,72.90
2017-10-26T11:35:28.758Z,73.80
2017-10-26T11:37:55.678Z,73.80
2017-10-26T11:40:22.569Z,74.40
2017-10-26T11:42:49.453Z,74.10
2017-10-26T11:45:16.752Z,73.60
2017-10-26T11:47:43.638Z,73.60
2017-10-26T11:50:10.957Z,72.60
2017-10-26T11:52:37.889Z,72.60
2017-10-26T11:55:04.795Z,72.30
2017-10-26T11:57:31.765Z,72.60
2017-10-26T11:59:58.641Z,72.50
2017-10-26T12:02:25.551Z,72.60
2017-10-26T12:04:52.428Z,72.20
2017-10-26T12:07:19.354Z,72.00
2017-10-26T12:09:46.231Z,71.50
2017-10-26T12:12:13.242Z,71.90
2017-10-26T12:14:40.134Z,72.00
2017-10-26T12:17:07.033Z,71.50
2017-10-26T12:19:33.949Z,71.50
2017-10-26T12:22:01.230Z,71.70
2017-10-26T12:24:28.109Z,71.70
2017-10-26T12:26:55.022Z,70.60
2017-10-26T12:29:21.902Z,71.20
2017-10-26T12:31:48.823Z,72.10
2017-10-26T12:34:15.708Z,71.50
2017-10-26T12:36:42.622Z,71.70
2017-10-26T12:39:09.501Z,71.90
2017-10-26T12:41:36.406Z,71.00
2017-10-26T12:44:03.310Z,72.00
2017-10-26T12:46:30.618Z,73.70
2017-10-26T12:48:57.541Z,73.70
2017-10-26T12:51:24.418Z,73.60
2017-10-26T12:53:51.338Z,73.40
2017-10-26T12:56:18.213Z,73.60
2017-10-26T12:58:45.128Z,73.50
2017-10-26T13:01:12.071Z,73.80
2017-10-26T13:03:38.947Z,73.80
2017-10-26T13:06:05.850Z,74.00
2017-10-26T13:08:32.738Z,74.70
2017-10-26T13:10:59.642Z,74.80
2017-10-26T13:13:26.522Z,74.90
2017-10-26T13:15:53.476Z,75.10
2017-10-26T13:18:20.381Z,74.80
2017-10-26T13:20:47.281Z,74.50
2017-10-26T13:23:14.176Z,74.10
2017-10-26T13:25:41.088Z,73.60
2017-10-26T13:28:08.000Z,73.00
2017-10-26T13:30:34.882Z,73.00
2017-10-26T13:33:01.801Z,72.50
2017-10-26T13:35:28.774Z,72.50
2017-10-26T13:37:55.658Z,72.80
2017-10-26T13:40:22.602Z,72.90
2017-10-26T13:42:49.527Z,72.60
2017-10-26T13:45:16.823Z,72.40
2017-10-26T13:47:43.732Z,72.40
2017-10-26T13:50:11.027Z,72.40
2017-10-26T13:52:37.909Z,72.40
2017-10-26T13:55:04.814Z,72.20
2017-10-26T13:57:31.739Z,71.70
2017-10-26T13:59:58.675Z,71.90
2017-10-26T14:02:25.562Z,72.20
2017-10-26T14:04:52.441Z,72.00
2017-10-26T14:07:19.354Z,72.10
2017-10-26T14:09:46.226Z,72.00
2017-10-26T14:12:13.216Z,71.00
2017-10-26T14:14:40.094Z,71.00
2017-10-26T14:17:06.991Z,71.40
2017-10-26T14:19:34.265Z,71.70
2017-10-26T14:22:01.161Z,71.70
2017-10-26T14:24:28.062Z,72.00
2017-10-26T14:26:54.945Z,71.90
2017-10-26T14:29:21.902Z,72.70
2017-10-26T14:31:48.849Z,72.60
2017-10-26T14:34:15.802Z,72.50
2017-10-26T14:36:42.679Z,72.30
2017-10-26T14:39:09.866Z,72.40
2017-10-26T14:41:36.753Z,73.20
2017-10-26T14:44:04.040Z,73.10
2017-10-26T14:46:30.949Z,73.10
2017-10-26T14:48:58.242Z,73.10
2017-10-26T14:51:25.161Z,73.10
2017-10-26T14:53:52.475Z,73.20
2017-10-26T14:56:19.389Z,73.20
2017-10-26T14:58:46.298Z,73.80
2017-10-26T15:01:13.643Z,74.40
2017-10-26T15:03:40.574Z,74.40
2017-10-26T15:06:07.453Z,74.30
2017-10-26T15:08:34.730Z,74.00
2017-10-26T15:11:01.638Z,74.00
2017-10-26T15:13:28.955Z,73.70
2017-10-26T15:15:55.851Z,73.70
2017-10-26T15:18:23.151Z,72.10
2017-10-26T15:20:50.034Z,72.00
2017-10-26T15:23:16.941Z,72.80
2017-10-26T15:25:43.822Z,73.60
2017-10-26T15:28:10.728Z,72.70
2017-10-26T15:30:37.638Z,72.70
2017-10-26T15:33:04.555Z,73.00
2017-10-26T15:35:31.439Z,73.60
2017-10-26T15:37:58.341Z,74.10
2017-10-26T15:40:25.263Z,74.40
2017-10-26T15:42:52.167Z,74.40
2017-10-26T15:45:19.065Z,74.40
2017-10-26T15:47:46.029Z,74.80
2017-10-26T15:50:12.906Z,75.10
2017-10-26T15:52:39.809Z,75.00
2017-10-26T15:55:07.248Z,75.60
2017-10-26T15:57:34.217Z,75.60
2017-10-26T16:00:01.166Z,75.80
2017-10-26T16:02:28.062Z,75.90
2017-10-26T16:04:55.060Z,76.20
2017-10-26T16:07:22.117Z,76.30
2017-10-26T16:09:49.034Z,76.50
2017-10-26T16:12:15.935Z,76.80
2017-10-26T16:14:42.959Z,76.90
2017-10-26T16:17:10.610Z,77.20
2017-10-26T16:19:37.567Z,77.20
2017-10-26T16:22:04.450Z,77.40
2017-10-26T16:24:31.454Z,77.60
2017-10-26T16:26:58.403Z,77.70
2017-10-26T16:29:25.345Z,77.90
2017-10-26T16:31:52.274Z,78.20
2017-10-26T16:34:19.170Z,78.50
2017-10-26T16:36:46.089Z,78.80
2017-10-26T16:39:13.134Z,78.90
2017-10-26T16:41:40.021Z,79.20
2017-10-26T16:44:06.908Z,79.40
2017-10-26T16:46:34.078Z,79.70
2017-10-26T16:49:01.064Z,80.00
2017-10-26T16:51:27.966Z,80.30
2017-10-26T16:53:54.876Z,80.50
2017-10-26T16:56:21.884Z,80.60
2017-10-26T16:58:49.242Z,80.80
2017-10-26T17:01:16.133Z,80.80
2017-10-26T17:03:43.022Z,80.70
2017-10-26T17:06:10.362Z,80.90
2017-10-26T17:08:37.317Z,80.90
2017-10-26T17:11:04.671Z,81.00
2017-10-26T17:13:31.560Z,81.00
2017-10-26T17:15:58.554Z,81.20
2017-10-26T17:18:25.444Z,81.10
2017-10-26T17:20:52.441Z,81.10
2017-10-26T17:23:19.339Z,80.80
2017-10-26T17:25:46.273Z,80.60
2017-10-26T17:28:13.159Z,80.30
2017-10-26T17:30:40.845Z,80.30
2017-10-26T17:33:07.753Z,80.40
2017-10-26T17:35:34.663Z,80.70
2017-10-26T17:38:01.570Z,81.00
2017-10-26T17:40:28.530Z,81.30
2017-10-26T17:42:55.473Z,81.20
2017-10-26T17:45:22.430Z,81.10
2017-10-26T17:47:49.318Z,80.90
2017-10-26T17:50:16.333Z,80.60
2017-10-26T17:52:43.664Z,80.30
2017-10-26T17:55:10.545Z,80.30
2017-10-26T17:57:37.461Z,80.10
2017-10-26T18:00:04.406Z,80.50
2017-10-26T18:02:31.297Z,80.30
2017-10-26T18:04:58.181Z,80.60
2017-10-26T18:07:25.155Z,80.80
2017-10-26T18:09:52.051Z,80.90
2017-10-26T18:12:18.935Z,80.60
2017-10-26T18:14:45.886Z,80.90
2017-10-26T18:17:12.785Z,81.00
2017-10-26T18:19:39.780Z,81.30
2017-10-26T18:22:06.677Z,81.40
2017-10-26T18:24:33.562Z,81.40
2017-10-26T18:27:00.518Z,81.30
2017-10-26T18:29:27.482Z,81.70
2017-10-26T18:31:54.821Z,82.00
2017-10-26T18:34:21.721Z,82.00
2017-10-26T18:36:48.644Z,82.40
2017-10-26T18:39:15.527Z,82.40
2017-10-26T18:41:42.422Z,82.40
2017-10-26T18:44:09.746Z,82.00
2017-10-26T18:46:36.695Z,82.00
2017-10-26T18:49:03.613Z,82.00
2017-10-26T18:51:30.537Z,82.20
2017-10-26T18:53:57.422Z,82.20
2017-10-26T18:56:24.313Z,82.30
2017-10-26T18:58:51.321Z,82.10
2017-10-26T19:01:18.206Z,82.20
2017-10-26T19:03:45.094Z,82.40
2017-10-26T19:06:12.065Z,82.60
2017-10-26T19:08:38.957Z,82.50
2017-10-26T19:11:05.853Z,82.50
2017-10-26T19:13:32.766Z,82.70
2017-10-26T19:15:59.650Z,82.90
2017-10-26T19:18:26.561Z,83.10
2017-10-26T19:20:53.474Z,83.20
2017-10-26T19:23:20.408Z,83.00
2017-10-26T19:25:47.742Z,82.80
2017-10-26T19:28:14.638Z,82.80
2017-10-26T19:30:41.542Z,82.30
2017-10-26T19:33:08.882Z,82.50
2017-10-26T19:35:35.831Z,82.50
2017-10-26T19:38:02.778Z,82.60
2017-10-26T19:40:29.731Z,82.60
2017-10-26T19:42:56.674Z,82.70
2017-10-26T19:45:23.560Z,82.40
2017-10-26T19:47:50.466Z,82.80
2017-10-26T19:50:17.366Z,82.80
2017-10-26T19:52:44.358Z,82.90
2017-10-26T19:55:11.258Z,82.70
2017-10-26T19:57:38.259Z,83.00
2017-10-26T20:00:05.559Z,83.20
2017-10-26T20:02:32.455Z,83.20
2017-10-26T20:04:59.366Z,83.20
2017-10-26T20:07:26.377Z,82.70
2017-10-26T20:09:53.354Z,82.70
2017-10-26T20:12:20.337Z,82.90
2017-10-26T20:14:47.651Z,83.20
2017-10-26T20:17:14.579Z,83.20
2017-10-26T20:19:41.462Z,83.30
2017-10-26T20:22:08.433Z,83.20
2017-10-26T20:24:35.341Z,82.90
2017-10-26T20:27:02.335Z,82.80
2017-10-26T20:29:29.635Z,82.60
2017-10-26T20:31:56.549Z,82.60
2017-10-26T20:34:23.885Z,82.40
2017-10-26T20:36:50.769Z,82.40
2017-10-26T20:39:17.691Z,82.70
2017-10-26T20:41:45.026Z,82.80
2017-10-26T20:44:11.901Z,82.80
2017-10-26T20:46:38.921Z,83.10
2017-10-26T20:49:05.827Z,82.90
2017-10-26T20:51:32.706Z,82.70
2017-10-26T20:53:59.686Z,82.40
2017-10-26T20:56:26.602Z,82.50
2017-10-26T20:58:53.550Z,83.10
2017-10-26T21:01:20.467Z,82.90
2017-10-26T21:03:47.354Z,82.70
2017-10-26T21:06:14.666Z,82.40
2017-10-26T21:08:41.638Z,82.40
2017-10-26T21:11:08.589Z,82.90
2017-10-26T21:13:35.538Z,82.90
2017-10-26T21:16:02.452Z,82.50
2017-10-26T21:18:29.337Z,82.40
2017-10-26T21:20:56.681Z,81.80
2017-10-26T21:23:23.734Z,81.80
2017-10-26T21:25:50.623Z,81.60
2017-10-26T21:28:17.515Z,81.70
2017-10-26T21:30:44.490Z,82.00
2017-10-26T21:33:11.797Z,82.70
2017-10-26T21:35:38.768Z,82.70
2017-10-26T21:38:05.715Z,82.40
2017-10-26T21:40:32.663Z,82.20
2017-10-26T21:42:59.610Z,82.10
2017-10-26T21:45:26.553Z,82.00
2017-10-26T21:47:53.441Z,82.40
2017-10-26T21:50:20.383Z,82.50
2017-10-26T21:52:47.290Z,81.70
2017-10-26T21:55:14.238Z,82.00
2017-10-26T21:57:41.178Z,81.90
2017-10-26T22:00:08.065Z,81.50
2017-10-26T22:02:34.975Z,81.20
2017-10-26T22:05:01.925Z,80.80
2017-10-26T22:07:28.865Z,80.80
2017-10-26T22:09:55.820Z,80.40
2017-10-26T22:12:22.706Z,80.10
2017-10-26T22:14:49.617Z,80.50
2017-10-26T22:17:16.946Z,80.90
2017-10-26T22:19:43.829Z,80.90
2017-10-26T22:22:11.105Z,81.30
2017-10-26T22:24:38.101Z,81.30
2017-10-26T22:27:04.987Z,82.00
2017-10-26T22:29:31.898Z,82.50
2017-10-26T22:31:58.787Z,82.50
2017-10-26T22:34:25.721Z,82.30
2017-10-26T22:36:53.011Z,82.10
2017-10-26T22:39:19.911Z,82.10
2017-10-26T22:41:47.267Z,81.40
2017-10-26T22:44:14.162Z,81.40
2017-10-26T22:58:03.992Z,84.60
2017-10-26T23:00:32.097Z,84.60
2017-10-26T23:02:59.009Z,84.50
2017-10-26T23:05:25.912Z,84.30
2017-10-26T23:07:53.665Z,84.40
2017-10-26T23:10:20.619Z,84.00
2017-10-26T23:12:47.526Z,84.20
2017-10-26T23:15:14.476Z,84.10
2017-10-26T23:17:41.422Z,84.10
2017-10-26T23:20:08.383Z,83.60
2017-10-26T23:22:37.353Z,83.40
2017-10-26T23:25:04.656Z,82.60
2017-10-26T23:27:31.743Z,82.60
2017-10-26T23:29:58.721Z,82.20
2017-10-26T23:32:41.555Z,82.10
2017-10-26T23:35:19.656Z,82.20
2017-10-26T23:38:01.354Z,82.80
2017-10-26T23:40:29.959Z,82.70
2017-10-26T23:42:56.882Z,82.70
2017-10-26T23:45:23.880Z,82.20
2017-10-26T23:47:50.775Z,82.10
2017-10-26T23:50:17.730Z,82.20
2017-10-26T23:52:44.653Z,82.10
2017-10-26T23:55:11.954Z,83.40
2017-10-26T23:57:39.718Z,83.40
